createdAt,value
2022-10-05T00:00:00.733Z,70.91
2022-10-05T00:05:19.363Z,71.03
2022-10-05T00:10:23.939Z,71.00
2022-10-05T00:15:27.609Z,71.05
2022-10-05T00:20:31.281Z,71.10
2022-10-05T00:25:35.011Z,71.09
2022-10-05T00:30:38.837Z,71.16
2022-10-05T00:35:42.690Z,71.24
2022-10-05T00:41:00.768Z,71.37
2022-10-05T00:46:11.871Z,71.31
2022-10-05T00:51:26.980Z,71.50
2022-10-05T00:56:56.123Z,71.58
2022-10-05T01:02:09.358Z,71.68
2022-10-05T01:07:22.881Z,72.02
2022-10-05T01:12:37.576Z,71.81
2022-10-05T01:17:48.957Z,72.18
2022-10-05T01:23:16.521Z,72.04
2022-10-05T01:28:28.229Z,72.16
2022-10-05T01:33:41.248Z,72.20
2022-10-05T01:38:55.307Z,72.38
2022-10-05T01:44:03.427Z,72.39
2022-10-05T01:49:20.759Z,72.52
2022-10-05T01:54:36.980Z,72.59
2022-10-05T01:59:53.505Z,72.67
2022-10-05T02:05:04.391Z,72.91
2022-10-05T02:10:18.791Z,72.74
2022-10-05T02:15:27.259Z,72.83
2022-10-05T02:20:34.682Z,72.96
2022-10-05T02:25:45.720Z,73.10
2022-10-05T02:30:56.736Z,72.99
2022-10-05T02:36:08.191Z,73.13
2022-10-05T02:41:22.985Z,73.02
2022-10-05T02:46:36.215Z,73.21
2022-10-05T02:51:49.163Z,73.17
2022-10-05T02:57:01.178Z,73.07
2022-10-05T03:02:12.921Z,73.17
2022-10-05T03:07:21.357Z,73.26
2022-10-05T03:12:41.014Z,73.15
2022-10-05T03:17:54.971Z,73.56
2022-10-05T03:23:02.819Z,73.41
2022-10-05T03:28:16.416Z,73.60
2022-10-05T03:33:31.016Z,73.51
2022-10-05T03:38:42.766Z,73.42
2022-10-05T03:44:07.975Z,73.73
2022-10-05T03:49:17.719Z,73.71
2022-10-05T03:54:27.089Z,73.80
2022-10-05T03:59:41.220Z,73.66
2022-10-05T04:04:50.704Z,73.82
2022-10-05T04:09:55.843Z,73.83
2022-10-05T04:15:06.928Z,74.01
2022-10-05T04:20:22.550Z,74.24
2022-10-05T04:25:32.072Z,74.21
2022-10-05T04:30:41.008Z,74.23
2022-10-05T04:36:09.791Z,74.03
2022-10-05T04:41:24.017Z,74.24
2022-10-05T04:46:38.160Z,74.24
2022-10-05T04:51:51.375Z,74.24
2022-10-05T04:57:01.605Z,74.24
2022-10-05T05:02:17.102Z,74.41
2022-10-05T05:07:35.686Z,74.34
2022-10-05T05:12:45.372Z,74.33
2022-10-05T05:18:04.358Z,74.39
2022-10-05T05:23:19.126Z,74.43
2022-10-05T05:28:31.938Z,74.66
2022-10-05T05:33:49.091Z,74.57
2022-10-05T05:38:57.426Z,74.78
2022-10-05T05:44:14.417Z,74.72
2022-10-05T05:49:24.922Z,74.76
2022-10-05T05:54:36.205Z,75.02
2022-10-05T05:59:58.687Z,75.31
2022-10-05T06:05:26.014Z,75.58
2022-10-05T06:10:38.334Z,75.34
2022-10-05T06:15:51.450Z,75.09
2022-10-05T06:20:59.966Z,74.96
2022-10-05T06:26:31.447Z,74.80
2022-10-05T06:31:59.064Z,74.76
2022-10-05T06:37:10.835Z,74.64
2022-10-05T06:42:31.731Z,74.52
2022-10-05T06:48:04.250Z,74.66
2022-10-05T06:53:34.075Z,74.65
2022-10-05T06:58:48.563Z,74.52
2022-10-05T07:04:07.440Z,74.46
2022-10-05T07:09:26.706Z,74.24
2022-10-05T07:14:52.764Z,74.01
2022-10-05T07:20:09.127Z,73.92
2022-10-05T07:25:19.528Z,73.96
2022-10-05T07:30:24.311Z,73.92
2022-10-05T07:35:58.716Z,73.92
2022-10-05T07:41:06.899Z,73.64
2022-10-05T07:46:20.975Z,73.64
2022-10-05T07:51:33.911Z,73.56
2022-10-05T07:56:42.904Z,73.48
2022-10-05T08:01:54.220Z,73.17
2022-10-05T08:07:03.190Z,72.87
2022-10-05T08:12:19.902Z,72.67
2022-10-05T08:17:32.886Z,72.70
2022-10-05T08:22:45.383Z,72.45
2022-10-05T08:27:52.976Z,72.27
2022-10-05T08:33:05.409Z,72.49
2022-10-05T08:38:14.193Z,72.64
2022-10-05T08:43:35.311Z,72.45
2022-10-05T08:49:15.557Z,72.17
2022-10-05T08:54:33.764Z,71.98
2022-10-05T09:00:14.085Z,71.95
2022-10-05T09:05:52.921Z,71.94
2022-10-05T09:11:44.367Z,71.59
2022-10-05T09:17:00.733Z,71.77
2022-10-05T09:22:15.283Z,71.66
2022-10-05T09:27:26.562Z,71.63
2022-10-05T09:33:15.657Z,71.74
2022-10-05T09:38:29.641Z,71.45
2022-10-05T09:43:59.179Z,71.46
2022-10-05T09:49:41.071Z,71.14
2022-10-05T09:55:18.834Z,71.04
2022-10-05T10:00:54.125Z,70.86
2022-10-05T10:06:24.962Z,70.68
2022-10-05T10:11:53.066Z,70.78
2022-10-05T10:17:28.862Z,70.72
2022-10-05T10:23:07.390Z,70.42
2022-10-05T10:28:52.035Z,70.22
2022-10-05T10:34:16.147Z,70.12
2022-10-05T10:39:34.372Z,69.70
2022-10-05T10:44:58.362Z,69.71
2022-10-05T10:50:27.952Z,69.86
2022-10-05T10:55:37.361Z,69.62
2022-10-05T11:00:54.834Z,69.46
2022-10-05T11:06:36.717Z,69.49
2022-10-05T11:12:01.214Z,69.28
2022-10-05T11:17:25.173Z,69.21
2022-10-05T11:22:45.932Z,69.17
2022-10-05T11:28:06.039Z,68.93
2022-10-05T11:33:42.340Z,68.70
2022-10-05T11:39:21.519Z,68.49
2022-10-05T11:44:59.138Z,68.37
2022-10-05T11:50:16.754Z,68.24
2022-10-05T11:55:26.756Z,68.07
2022-10-05T12:00:40.314Z,67.89
2022-10-05T12:06:05.151Z,67.78
2022-10-05T12:11:25.827Z,67.83
2022-10-05T12:16:38.256Z,67.65
2022-10-05T12:21:47.043Z,67.57
2022-10-05T12:26:57.257Z,67.58
2022-10-05T12:32:05.154Z,67.36
2022-10-05T12:37:28.369Z,67.34
2022-10-05T12:42:42.039Z,67.16
2022-10-05T12:48:02.000Z,67.17
2022-10-05T12:53:35.940Z,67.02
2022-10-05T12:58:51.721Z,66.94
2022-10-05T13:04:05.096Z,66.97
2022-10-05T13:09:18.228Z,66.97
2022-10-05T13:14:44.402Z,66.98
2022-10-05T13:19:54.487Z,66.98
2022-10-05T13:25:08.763Z,66.85
2022-10-05T13:30:17.685Z,66.86
2022-10-05T13:35:34.478Z,66.75
2022-10-05T21:59:43.265Z,70.73
2022-10-05T22:41:32.989Z,71.20
2022-10-05T22:46:41.982Z,71.30
2022-10-05T22:52:07.450Z,71.34
2022-10-05T22:58:27.272Z,71.54
2022-10-05T23:32:28.603Z,71.63
2022-10-05T23:44:58.109Z,71.77
